createdAt,value
2018-09-14T00:01:38.452Z,61.40
2018-09-14T00:04:07.363Z,61.90
2018-09-14T00:06:36.199Z,61.70
2018-09-14T00:09:09.394Z,61.70
2018-09-14T00:11:38.246Z,61.70
2018-09-14T00:14:07.152Z,61.90
2018-09-14T00:16:36.459Z,62.00
2018-09-14T00:19:05.346Z,62.10
2018-09-14T00:21:34.203Z,62.10
2018-09-14T00:24:03.039Z,62.10
2018-09-14T00:26:31.890Z,62.10
2018-09-14T00:29:00.778Z,62.10
2018-09-14T00:31:29.643Z,62.10
2018-09-14T00:33:58.459Z,62.20
2018-09-14T00:36:27.326Z,62.30
2018-09-14T00:38:56.147Z,62.30
2018-09-14T00:41:25.037Z,62.30
2018-09-14T00:43:53.843Z,62.60
2018-09-14T00:46:22.719Z,62.80
2018-09-14T00:48:51.583Z,62.60
2018-09-14T00:51:20.455Z,62.80
2018-09-14T00:53:49.290Z,62.80
2018-09-14T00:56:18.153Z,62.70
2018-09-14T00:58:47.194Z,62.70
2018-09-14T01:01:16.069Z,62.60
2018-09-14T01:03:44.902Z,62.60
2018-09-14T01:06:13.767Z,62.50
2018-09-14T01:08:42.594Z,62.50
2018-09-14T01:11:11.527Z,62.50
2018-09-14T01:13:40.362Z,62.70
2018-09-14T01:16:09.231Z,62.70
2018-09-14T01:18:38.060Z,62.90
2018-09-14T01:21:06.919Z,62.80
2018-09-14T01:23:35.747Z,62.80
2018-09-14T01:26:04.614Z,62.90
2018-09-14T01:28:33.460Z,62.90
2018-09-14T01:31:02.322Z,62.90
2018-09-14T01:33:31.163Z,63.00
2018-09-14T01:36:14.563Z,63.00
2018-09-14T01:38:43.404Z,63.00
2018-09-14T01:41:12.338Z,63.10
2018-09-14T01:43:41.204Z,63.30
2018-09-14T01:46:10.102Z,63.40
2018-09-14T01:48:38.929Z,63.50
2018-09-14T01:51:07.812Z,63.50
2018-09-14T01:53:36.650Z,63.40
2018-09-14T01:56:05.510Z,63.60
2018-09-14T01:58:34.350Z,63.40
2018-09-14T02:01:03.235Z,63.50
2018-09-14T02:03:32.168Z,63.60
2018-09-14T02:06:01.015Z,63.60
2018-09-14T02:08:29.873Z,63.60
2018-09-14T02:10:58.702Z,63.60
2018-09-14T02:13:27.562Z,63.70
2018-09-14T02:15:56.404Z,63.60
2018-09-14T02:18:25.285Z,63.70
2018-09-14T02:20:54.123Z,63.80
2018-09-14T02:23:23.004Z,63.70
2018-09-14T02:25:51.839Z,63.70
2018-09-14T02:28:20.757Z,63.70
2018-09-14T02:30:49.760Z,63.80
2018-09-14T02:33:18.627Z,63.50
2018-09-14T02:35:47.556Z,64.00
2018-09-14T02:38:16.453Z,64.00
2018-09-14T02:40:45.279Z,64.10
2018-09-14T02:43:14.139Z,64.10
2018-09-14T02:45:42.966Z,64.10
2018-09-14T02:48:11.944Z,64.10
2018-09-14T02:50:40.775Z,64.10
2018-09-14T02:53:09.674Z,64.20
2018-09-14T02:55:38.582Z,64.30
2018-09-14T02:58:07.437Z,64.30
2018-09-14T03:00:36.301Z,64.30
2018-09-14T03:03:05.220Z,64.40
2018-09-14T03:05:34.194Z,64.40
2018-09-14T03:08:03.095Z,64.50
2018-09-14T03:10:31.935Z,64.40
2018-09-14T03:13:00.811Z,64.50
2018-09-14T03:15:29.643Z,64.50
2018-09-14T03:17:58.514Z,64.60
2018-09-14T03:20:27.359Z,64.50
2018-09-14T03:22:56.274Z,64.50
2018-09-14T03:25:25.111Z,64.70
2018-09-14T03:27:54.007Z,64.70
2018-09-14T03:30:22.835Z,65.60
2018-09-14T03:32:51.687Z,64.70
2018-09-14T03:35:20.570Z,64.60
2018-09-14T03:37:49.423Z,64.70
2018-09-14T03:40:18.278Z,64.70
2018-09-14T03:42:47.112Z,64.80
2018-09-14T03:45:15.995Z,64.90
2018-09-14T03:47:44.833Z,64.90
2018-09-14T03:50:13.736Z,64.90
2018-09-14T03:52:42.608Z,64.90
2018-09-14T03:55:11.560Z,64.90
2018-09-14T03:57:40.520Z,64.70
2018-09-14T04:00:09.391Z,64.70
2018-09-14T04:02:38.263Z,64.80
2018-09-14T04:05:07.131Z,65.00
2018-09-14T04:07:36.004Z,65.00
2018-09-14T04:10:04.859Z,65.00
2018-09-14T04:12:33.694Z,65.10
2018-09-14T04:15:02.606Z,65.10
2018-09-14T04:17:31.447Z,65.00
2018-09-14T04:20:00.319Z,65.10
2018-09-14T04:22:29.163Z,65.00
2018-09-14T04:24:58.032Z,65.10
2018-09-14T04:27:26.872Z,65.10
2018-09-14T04:29:55.734Z,65.20
2018-09-14T04:32:24.577Z,65.20
2018-09-14T04:34:53.957Z,65.20
2018-09-14T04:37:22.807Z,65.20
2018-09-14T04:39:51.670Z,66.40
2018-09-14T04:42:20.526Z,65.30
2018-09-14T04:44:49.409Z,65.20
2018-09-14T04:47:18.271Z,66.00
2018-09-14T04:49:47.252Z,65.20
2018-09-14T04:52:16.247Z,65.30
2018-09-14T04:54:45.165Z,65.30
2018-09-14T04:57:14.081Z,65.30
2018-09-14T04:59:42.955Z,65.30
2018-09-14T05:02:11.854Z,65.40
2018-09-14T05:04:40.759Z,65.40
2018-09-14T05:07:09.607Z,65.40
2018-09-14T05:09:38.516Z,65.40
2018-09-14T05:12:07.498Z,65.40
2018-09-14T05:14:36.372Z,65.30
2018-09-14T05:17:05.224Z,65.40
2018-09-14T05:19:34.103Z,65.40
2018-09-14T05:22:02.960Z,65.40
2018-09-14T05:24:31.854Z,65.40
2018-09-14T05:27:00.706Z,65.50
2018-09-14T05:29:29.601Z,65.50
2018-09-14T05:31:58.445Z,65.50
2018-09-14T05:34:27.331Z,65.40
2018-09-14T05:36:56.178Z,65.40
2018-09-14T05:39:25.074Z,66.50
2018-09-14T05:41:54.006Z,65.50
2018-09-14T05:44:22.874Z,65.60
2018-09-14T05:46:51.764Z,65.50
2018-09-14T05:49:20.604Z,65.60
2018-09-14T05:51:50.016Z,65.60
2018-09-14T05:54:18.898Z,65.70
2018-09-14T05:56:47.778Z,65.70
2018-09-14T05:59:16.783Z,65.70
2018-09-14T06:01:45.711Z,65.60
2018-09-14T06:04:14.567Z,65.60
2018-09-14T06:06:43.575Z,65.60
2018-09-14T06:09:13.499Z,65.60
2018-09-14T06:11:43.142Z,65.70
2018-09-14T06:14:12.033Z,65.80
2018-09-14T06:16:41.130Z,65.50
2018-09-14T06:19:09.995Z,65.60
2018-09-14T06:21:38.881Z,65.50
2018-09-14T06:24:07.315Z,65.60
2018-09-14T06:26:36.212Z,65.70
2018-09-14T06:29:05.308Z,65.70
2018-09-14T06:31:34.227Z,65.70
2018-09-14T06:34:03.069Z,65.70
2018-09-14T06:36:31.946Z,65.60
2018-09-14T06:39:00.804Z,65.70
2018-09-14T06:41:29.690Z,65.80
2018-09-14T06:43:58.544Z,65.80
2018-09-14T06:46:27.475Z,65.80
2018-09-14T06:48:56.323Z,65.80
2018-09-14T06:51:25.207Z,65.80
2018-09-14T06:53:54.059Z,65.80
2018-09-14T06:56:22.936Z,65.80
2018-09-14T06:58:51.792Z,65.80
2018-09-14T07:01:20.695Z,65.80
2018-09-14T07:03:49.539Z,65.80
2018-09-14T07:06:18.437Z,65.80
2018-09-14T07:08:47.307Z,65.90
2018-09-14T07:11:16.565Z,65.60
2018-09-14T07:13:45.419Z,65.60
2018-09-14T07:16:14.327Z,65.50
2018-09-14T07:18:43.163Z,65.40
2018-09-14T07:21:12.055Z,65.50
2018-09-14T07:23:40.901Z,65.40
2018-09-14T07:26:10.143Z,65.40
2018-09-14T07:28:39.008Z,65.40
2018-09-14T07:31:07.882Z,65.40
2018-09-14T07:33:36.739Z,65.40
2018-09-14T07:36:05.615Z,65.30
2018-09-14T07:38:34.465Z,65.30
2018-09-14T07:41:03.312Z,65.20
2018-09-14T07:43:32.219Z,65.20
2018-09-14T07:46:01.075Z,65.00
2018-09-14T07:48:29.953Z,65.00
2018-09-14T07:50:58.819Z,65.00
2018-09-14T07:53:27.687Z,64.90
2018-09-14T07:55:56.647Z,64.90
2018-09-14T07:58:25.536Z,65.80
2018-09-14T08:00:54.422Z,65.70
2018-09-14T08:03:23.313Z,65.10
2018-09-14T08:05:52.166Z,64.90
2018-09-14T08:08:21.039Z,64.70
2018-09-14T08:10:49.893Z,64.60
2018-09-14T08:13:18.952Z,64.30
2018-09-14T08:15:47.749Z,63.80
2018-09-14T08:18:16.611Z,63.80
2018-09-14T08:20:45.484Z,63.90
2018-09-14T08:23:14.320Z,64.00
2018-09-14T08:25:43.187Z,64.20
2018-09-14T08:28:12.071Z,64.10
2018-09-14T08:30:40.942Z,64.10
2018-09-14T08:33:09.830Z,63.50
2018-09-14T08:35:38.719Z,63.60
2018-09-14T08:38:07.614Z,63.40
2018-09-14T08:40:36.567Z,63.40
2018-09-14T08:43:05.411Z,63.20
2018-09-14T08:45:34.292Z,63.00
2018-09-14T08:48:03.194Z,62.80
2018-09-14T08:50:32.032Z,62.50
2018-09-14T08:53:00.876Z,62.30
2018-09-14T08:55:29.779Z,62.30
2018-09-14T08:57:58.682Z,62.30
2018-09-14T09:00:27.532Z,61.90
2018-09-14T09:02:56.429Z,61.90
2018-09-14T09:05:25.513Z,61.30
2018-09-14T09:07:54.363Z,61.30
2018-09-14T09:10:23.254Z,61.30
2018-09-14T09:12:52.139Z,60.70
2018-09-14T09:15:21.080Z,60.90
2018-09-14T09:17:50.074Z,61.80
2018-09-14T09:20:18.851Z,60.80
2018-09-14T09:22:47.755Z,60.90
2018-09-14T09:25:16.653Z,61.00
2018-09-14T09:27:45.512Z,61.00
2018-09-14T09:30:14.394Z,60.70
2018-09-14T09:32:43.303Z,60.60
2018-09-14T09:35:12.193Z,60.40
2018-09-14T09:37:41.083Z,60.40
2018-09-14T09:40:09.925Z,60.00
2018-09-14T09:42:38.802Z,59.80
2018-09-14T09:45:07.666Z,59.60
2018-09-14T09:47:36.551Z,59.70
2018-09-14T09:50:06.021Z,59.70
2018-09-14T09:52:34.934Z,59.60
2018-09-14T09:55:04.344Z,59.70
2018-09-14T09:57:33.283Z,59.70
2018-09-14T10:00:02.135Z,59.10
2018-09-14T10:02:36.062Z,58.90
2018-09-14T10:05:10.680Z,58.60
2018-09-14T10:07:39.579Z,58.80
2018-09-14T10:10:12.143Z,58.80
2018-09-14T10:12:41.268Z,58.50
2018-09-14T10:15:10.146Z,58.30
2018-09-14T10:17:39.056Z,58.50
2018-09-14T10:20:07.888Z,58.60
2018-09-14T10:22:37.099Z,58.70
2018-09-14T10:25:05.968Z,58.30
2018-09-14T10:27:34.971Z,58.40
2018-09-14T10:30:04.464Z,58.40
2018-09-14T10:32:33.364Z,58.30
2018-09-14T10:35:02.900Z,58.40
2018-09-14T10:37:31.758Z,58.30
2018-09-14T10:40:00.666Z,57.80
2018-09-14T10:42:29.591Z,57.70
2018-09-14T10:44:58.439Z,57.60
2018-09-14T10:47:27.312Z,57.70
2018-09-14T10:49:56.304Z,57.40
2018-09-14T10:52:25.193Z,57.30
2018-09-14T10:54:54.093Z,57.50
2018-09-14T10:57:23.083Z,57.60
2018-09-14T10:59:51.962Z,57.40
2018-09-14T11:02:20.847Z,57.40
2018-09-14T11:04:49.691Z,57.20
2018-09-14T11:07:18.566Z,57.10
2018-09-14T11:09:47.411Z,56.90
2018-09-14T11:12:16.311Z,56.80
2018-09-14T11:14:45.147Z,56.60
2018-09-14T11:17:14.018Z,56.40
2018-09-14T11:19:42.856Z,56.30
2018-09-14T11:22:11.754Z,56.30
2018-09-14T11:24:40.711Z,56.30
2018-09-14T11:27:09.508Z,56.30
2018-09-14T11:29:38.349Z,56.10
2018-09-14T11:32:07.321Z,55.90
2018-09-14T11:34:36.244Z,55.90
2018-09-14T11:37:05.521Z,56.10
2018-09-14T11:39:34.401Z,56.80
2018-09-14T11:42:03.240Z,55.60
2018-09-14T11:44:32.136Z,55.80
2018-09-14T11:47:01.005Z,56.10
2018-09-14T11:49:29.939Z,56.40
2018-09-14T11:51:58.792Z,56.50
2018-09-14T11:54:27.812Z,56.70
2018-09-14T11:56:56.641Z,56.60
2018-09-14T11:59:25.602Z,56.40
2018-09-14T12:01:54.833Z,56.40
2018-09-14T12:04:23.811Z,56.60
2018-09-14T12:06:52.631Z,56.40
2018-09-14T12:09:21.513Z,56.30
2018-09-14T12:11:50.346Z,55.90
2018-09-14T12:14:19.222Z,55.70
2018-09-14T12:16:48.087Z,55.40
2018-09-14T12:19:16.955Z,55.20
2018-09-14T12:21:45.803Z,55.00
2018-09-14T12:24:14.698Z,55.20
2018-09-14T12:26:43.561Z,55.10
2018-09-14T12:29:12.487Z,54.70
2018-09-14T12:31:41.336Z,54.60
2018-09-14T12:34:10.238Z,54.30
2018-09-14T12:36:39.102Z,54.00
2018-09-14T12:39:09.282Z,53.80
2018-09-14T12:41:38.250Z,53.70
2018-09-14T12:44:07.583Z,55.00
2018-09-14T12:46:36.435Z,53.50
2018-09-14T12:49:05.437Z,53.80
2018-09-14T12:51:34.319Z,53.90
2018-09-14T12:54:03.204Z,53.90
2018-09-14T12:56:32.041Z,53.70
2018-09-14T12:59:01.036Z,53.50
2018-09-14T13:01:29.863Z,53.60
2018-09-14T13:03:58.751Z,53.70
2018-09-14T13:06:27.697Z,53.40
2018-09-14T13:08:56.544Z,52.60
2018-09-14T13:11:25.463Z,53.10
2018-09-14T13:13:54.455Z,51.90
2018-09-14T13:16:23.338Z,51.90
2018-09-14T13:18:52.174Z,51.60
2018-09-14T13:21:21.073Z,51.50
2018-09-14T13:23:49.922Z,51.30
2018-09-14T13:26:18.800Z,51.00
2018-09-14T13:28:47.671Z,50.40
2018-09-14T13:31:16.566Z,50.50
2018-09-14T13:33:45.445Z,50.60
2018-09-14T13:36:14.332Z,50.60
2018-09-14T13:38:43.183Z,50.80
2018-09-14T13:41:12.071Z,51.00
2018-09-14T13:43:40.926Z,51.00
2018-09-14T13:46:09.815Z,51.10
2018-09-14T13:48:38.648Z,50.80
2018-09-14T13:51:07.583Z,51.10
2018-09-14T13:53:36.431Z,51.20
2018-09-14T13:56:05.438Z,51.20
2018-09-14T13:58:34.279Z,50.90
2018-09-14T14:01:03.175Z,50.60
2018-09-14T14:03:32.003Z,50.50
2018-09-14T14:06:00.891Z,50.20
2018-09-14T14:08:29.727Z,49.90
2018-09-14T14:10:58.607Z,49.90
2018-09-14T14:13:27.457Z,50.00
2018-09-14T14:15:56.389Z,49.90
2018-09-14T14:18:25.260Z,49.90
2018-09-14T14:20:54.200Z,49.90
2018-09-14T14:23:23.051Z,50.00
2018-09-14T14:25:51.918Z,49.30
2018-09-14T14:28:20.757Z,49.70
2018-09-14T14:30:49.627Z,49.90
2018-09-14T14:33:18.476Z,49.80
2018-09-14T14:35:47.343Z,50.20
2018-09-14T14:38:16.183Z,50.30
2018-09-14T14:40:45.068Z,50.30
2018-09-14T14:43:13.908Z,50.90
2018-09-14T14:45:42.763Z,50.00
2018-09-14T14:48:11.619Z,49.40
2018-09-14T14:50:40.514Z,48.80
2018-09-14T14:53:09.358Z,49.10
2018-09-14T14:55:38.223Z,49.30
2018-09-14T14:58:07.091Z,49.20
2018-09-14T15:00:35.966Z,49.60
2018-09-14T15:03:04.836Z,49.70
2018-09-14T15:05:33.674Z,49.70
2018-09-14T15:08:02.538Z,48.70
2018-09-14T15:10:31.411Z,48.60
2018-09-14T15:13:00.279Z,48.00
2018-09-14T15:15:29.110Z,48.30
2018-09-14T15:17:57.978Z,48.30
2018-09-14T15:20:26.834Z,48.00
2018-09-14T15:22:55.714Z,48.30
2018-09-14T15:25:24.552Z,48.00
2018-09-14T15:27:53.451Z,48.30
2018-09-14T15:30:22.381Z,48.50
2018-09-14T15:32:51.382Z,48.60
2018-09-14T15:35:20.227Z,48.70
2018-09-14T15:37:49.987Z,48.70
2018-09-14T15:40:18.960Z,48.50
2018-09-14T15:42:48.034Z,48.60
2018-09-14T15:45:16.887Z,48.60
2018-09-14T15:47:45.759Z,48.50
2018-09-14T15:50:14.684Z,48.50
2018-09-14T15:52:43.571Z,48.70
2018-09-14T15:55:12.606Z,48.70
2018-09-14T15:57:41.507Z,48.70
2018-09-14T16:00:10.370Z,48.70
2018-09-14T16:02:39.256Z,48.80
2018-09-14T16:05:08.116Z,48.60
2018-09-14T16:07:36.988Z,48.60
2018-09-14T16:10:05.876Z,48.90
2018-09-14T16:12:34.751Z,49.00
2018-09-14T16:15:03.835Z,49.00
2018-09-14T16:17:32.704Z,49.10
2018-09-14T16:20:01.547Z,49.30
2018-09-14T16:22:30.452Z,49.40
2018-09-14T16:24:59.284Z,49.50
2018-09-14T16:27:28.144Z,49.70
2018-09-14T16:29:56.992Z,49.70
2018-09-14T16:32:25.867Z,49.70
2018-09-14T16:34:54.695Z,49.70
2018-09-14T16:37:23.559Z,49.80
2018-09-14T16:39:52.391Z,50.00
2018-09-14T16:42:21.246Z,49.80
2018-09-14T16:44:50.080Z,49.90
2018-09-14T16:47:18.983Z,50.00
2018-09-14T16:49:47.847Z,49.90
2018-09-14T16:52:16.774Z,49.80
2018-09-14T16:54:45.619Z,49.90
2018-09-14T16:57:14.455Z,49.90
2018-09-14T16:59:43.322Z,50.00
2018-09-14T17:02:12.186Z,49.80
2018-09-14T17:04:41.055Z,49.80
2018-09-14T17:07:10.034Z,49.80
2018-09-14T17:09:38.907Z,50.00
2018-09-14T17:12:07.742Z,50.00
2018-09-14T17:14:36.695Z,50.20
2018-09-14T17:17:05.524Z,50.00
2018-09-14T17:19:34.386Z,50.20
2018-09-14T17:22:03.199Z,50.50
2018-09-14T17:24:32.078Z,50.60
2018-09-14T17:27:00.919Z,50.80
2018-09-14T17:29:29.783Z,50.70
2018-09-14T17:31:58.625Z,50.70
2018-09-14T17:34:27.483Z,50.70
2018-09-14T17:36:56.312Z,50.90
2018-09-14T17:39:25.295Z,50.80
2018-09-14T17:41:54.122Z,50.80
2018-09-14T17:44:23.015Z,50.80
2018-09-14T17:46:52.731Z,51.00
2018-09-14T17:49:21.595Z,51.10
2018-09-14T17:51:50.583Z,50.90
2018-09-14T17:54:19.446Z,51.00
2018-09-14T17:56:48.322Z,50.80
2018-09-14T17:59:17.251Z,51.00
2018-09-14T18:01:46.167Z,51.10
2018-09-14T18:04:15.043Z,51.30
2018-09-14T18:06:43.854Z,51.40
2018-09-14T18:09:13.166Z,51.10
2018-09-14T18:11:42.016Z,51.10
2018-09-14T18:14:11.059Z,51.30
2018-09-14T18:16:39.891Z,51.30
2018-09-14T18:19:08.876Z,51.30
2018-09-14T18:21:37.727Z,51.50
2018-09-14T18:24:06.770Z,51.70
2018-09-14T18:26:35.605Z,51.80
2018-09-14T18:29:04.526Z,51.80
2018-09-14T18:31:33.364Z,51.70
2018-09-14T18:34:02.272Z,51.80
2018-09-14T18:36:31.116Z,51.80
2018-09-14T18:39:00.028Z,51.80
2018-09-14T18:41:28.855Z,51.90
2018-09-14T18:43:57.723Z,52.00
2018-09-14T18:46:26.588Z,52.00
2018-09-14T18:48:55.487Z,52.00
2018-09-14T18:51:24.351Z,52.10
2018-09-14T18:53:53.218Z,52.20
2018-09-14T18:56:22.072Z,52.10
2018-09-14T18:58:50.910Z,52.10
2018-09-14T19:01:19.783Z,51.20
2018-09-14T19:03:48.632Z,52.20
2018-09-14T19:06:17.533Z,52.30
2018-09-14T19:08:46.396Z,52.40
2018-09-14T19:11:15.271Z,52.40
2018-09-14T19:13:44.110Z,52.40
2018-09-14T19:16:12.982Z,52.40
2018-09-14T19:18:42.004Z,52.40
2018-09-14T19:21:10.879Z,52.50
2018-09-14T19:23:39.824Z,52.40
2018-09-14T19:26:08.803Z,52.50
2018-09-14T19:28:37.634Z,52.70
2018-09-14T19:31:06.996Z,52.70
2018-09-14T19:33:36.024Z,52.70
2018-09-14T19:36:05.558Z,52.50
2018-09-14T19:38:34.668Z,52.70
2018-09-14T19:41:03.519Z,52.70
2018-09-14T19:43:32.391Z,52.80
2018-09-14T19:46:01.259Z,53.40
2018-09-14T19:48:30.094Z,53.00
2018-09-14T19:50:59.003Z,53.00
2018-09-14T19:53:27.822Z,53.20
2018-09-14T19:55:56.711Z,53.10
2018-09-14T19:58:25.541Z,53.10
2018-09-14T20:00:54.542Z,53.20
2018-09-14T20:03:23.374Z,53.20
2018-09-14T20:05:52.252Z,53.40
2018-09-14T20:08:21.131Z,53.50
2018-09-14T20:10:49.989Z,53.50
2018-09-14T20:13:18.814Z,53.50
2018-09-14T20:15:47.700Z,53.50
2018-09-14T20:18:16.579Z,53.50
2018-09-14T20:20:45.424Z,53.50
2018-09-14T20:23:14.271Z,53.50
2018-09-14T20:25:43.127Z,53.60
2018-09-14T20:28:11.997Z,53.60
2018-09-14T20:30:40.875Z,53.70
2018-09-14T20:33:09.806Z,53.70
2018-09-14T20:35:38.671Z,53.70
2018-09-14T20:38:07.508Z,53.70
2018-09-14T20:40:36.388Z,53.80
2018-09-14T20:43:05.241Z,53.90
2018-09-14T20:45:34.112Z,54.00
2018-09-14T20:48:02.930Z,54.00
2018-09-14T20:50:31.814Z,54.00
2018-09-14T20:53:00.705Z,54.00
2018-09-14T20:55:29.586Z,54.00
2018-09-14T20:57:58.670Z,54.10
2018-09-14T21:00:27.578Z,54.10
2018-09-14T21:02:56.415Z,54.20
2018-09-14T21:05:25.290Z,54.20
2018-09-14T21:07:54.106Z,54.30
2018-09-14T21:10:22.979Z,54.40
2018-09-14T21:12:51.825Z,54.40
2018-09-14T21:15:20.715Z,54.50
2018-09-14T21:17:49.551Z,54.50
2018-09-14T21:20:18.438Z,54.50
2018-09-14T21:22:47.415Z,54.60
2018-09-14T21:25:16.158Z,54.70
2018-09-14T21:27:44.992Z,54.70
2018-09-14T21:30:13.888Z,54.80
2018-09-14T21:32:42.803Z,54.90
2018-09-14T21:35:11.664Z,55.00
2018-09-14T21:37:40.535Z,55.00
2018-09-14T21:40:09.471Z,55.10
2018-09-14T21:42:38.348Z,55.10
2018-09-14T21:45:07.202Z,55.20
2018-09-14T21:47:36.088Z,55.30
2018-09-14T21:50:05.055Z,55.40
2018-09-14T21:52:33.974Z,55.40
2018-09-14T21:55:02.892Z,55.50
2018-09-14T21:57:31.831Z,55.60
2018-09-14T22:00:04.801Z,55.70
2018-09-14T22:02:33.662Z,55.80
2018-09-14T22:05:02.487Z,55.70
2018-09-14T22:07:31.362Z,55.80
2018-09-14T22:10:00.200Z,55.90
2018-09-14T22:12:29.070Z,56.00
2018-09-14T22:14:57.914Z,56.10
2018-09-14T22:17:26.790Z,56.10
2018-09-14T22:19:55.646Z,56.20
2018-09-14T22:22:24.542Z,56.20
2018-09-14T22:24:53.603Z,56.20
2018-09-14T22:27:22.491Z,56.30
2018-09-14T22:29:51.311Z,56.30
2018-09-14T22:32:20.215Z,56.30
2018-09-14T22:34:49.165Z,56.30
2018-09-14T22:37:18.031Z,56.50
2018-09-14T22:39:46.875Z,56.50
2018-09-14T22:42:15.732Z,57.30
2018-09-14T22:44:44.559Z,56.70
2018-09-14T22:47:13.498Z,56.80
2018-09-14T22:49:42.329Z,56.80
2018-09-14T22:52:11.266Z,56.90
2018-09-14T22:54:40.195Z,56.90
2018-09-14T22:57:09.079Z,57.00
2018-09-14T22:59:37.928Z,57.00
2018-09-14T23:02:06.795Z,57.10
2018-09-14T23:04:35.660Z,57.10
2018-09-14T23:07:04.549Z,57.10
2018-09-14T23:09:33.395Z,57.10
2018-09-14T23:12:02.367Z,57.20
2018-09-14T23:14:31.201Z,57.30
2018-09-14T23:17:00.079Z,57.30
2018-09-14T23:19:28.918Z,57.30
2018-09-14T23:21:57.804Z,57.30
2018-09-14T23:24:26.645Z,57.40
2018-09-14T23:26:55.595Z,57.50
2018-09-14T23:29:24.436Z,57.60
2018-09-14T23:31:53.309Z,57.70
2018-09-14T23:34:22.175Z,57.70
2018-09-14T23:36:51.142Z,57.70
2018-09-14T23:39:19.954Z,58.50
2018-09-14T23:41:48.811Z,57.80
2018-09-14T23:44:17.637Z,57.80
2018-09-14T23:46:46.458Z,57.90
2018-09-14T23:49:15.327Z,57.90
2018-09-14T23:51:44.199Z,57.90
2018-09-14T23:54:13.092Z,57.80
2018-09-14T23:56:41.912Z,57.80
2018-09-14T23:59:10.777Z,57.90
